createdAt,value
2017-05-17T00:00:47.654Z,18.26
2017-05-17T00:01:57.765Z,18.21
2017-05-17T00:03:08.105Z,18.21
2017-05-17T00:04:18.195Z,18.25
2017-05-17T00:05:28.906Z,18.32
2017-05-17T00:06:39.122Z,18.26
2017-05-17T00:07:50.860Z,18.25
2017-05-17T00:09:01.962Z,18.11
2017-05-17T00:10:12.840Z,18.15
2017-05-17T00:11:23.584Z,18.15
2017-05-17T00:12:33.997Z,18.21
2017-05-17T00:13:42.962Z,18.11
2017-05-17T00:14:51.929Z,18.11
2017-05-17T00:16:01.527Z,18.14
2017-05-17T00:17:10.489Z,18.15
2017-05-17T00:18:19.450Z,18.11
2017-05-17T00:19:28.412Z,18.14
2017-05-17T00:20:37.377Z,18.11
2017-05-17T00:21:46.693Z,18.17
2017-05-17T00:22:55.659Z,18.17
2017-05-17T00:24:04.715Z,18.15
2017-05-17T00:25:13.677Z,18.1
2017-05-17T00:26:22.642Z,18.21
2017-05-17T00:27:32.514Z,18.14
2017-05-17T00:28:41.482Z,18.17
2017-05-17T00:29:50.443Z,18.17
2017-05-17T00:30:59.406Z,18.18
2017-05-17T00:32:08.371Z,18.15
2017-05-17T00:33:17.684Z,18.15
2017-05-17T00:34:26.651Z,18.23
2017-05-17T00:35:35.615Z,18.17
2017-05-17T00:36:44.581Z,18.15
2017-05-17T00:37:53.544Z,18.18
2017-05-17T00:39:02.813Z,18.27
2017-05-17T00:40:11.775Z,18.29
2017-05-17T00:41:20.736Z,18.32
2017-05-17T00:42:29.701Z,18.27
2017-05-17T00:43:38.667Z,18.29
2017-05-17T00:44:47.931Z,18.3
2017-05-17T00:45:56.894Z,18.32
2017-05-17T00:47:05.855Z,18.21
2017-05-17T00:48:14.819Z,18.29
2017-05-17T00:49:23.954Z,18.23
2017-05-17T00:50:33.323Z,18.32
2017-05-17T00:51:42.282Z,18.32
2017-05-17T00:52:51.246Z,18.27
2017-05-17T00:54:00.212Z,18.25
2017-05-17T00:55:09.176Z,18.27
2017-05-17T00:56:18.389Z,18.23
2017-05-17T00:57:27.439Z,18.25
2017-05-17T00:58:36.488Z,18.25
2017-05-17T00:59:45.538Z,18.25
2017-05-17T01:00:54.500Z,18.25
2017-05-17T01:02:03.710Z,18.29
2017-05-17T01:03:12.674Z,18.35
2017-05-17T01:04:21.962Z,18.23
2017-05-17T01:05:30.925Z,18.35
2017-05-17T01:06:39.890Z,18.29
2017-05-17T01:07:49.241Z,18.41
2017-05-17T01:08:58.208Z,18.36
2017-05-17T01:10:07.185Z,18.39
2017-05-17T01:11:16.149Z,18.35
2017-05-17T01:12:25.113Z,18.41
2017-05-17T01:13:34.374Z,18.39
2017-05-17T01:14:43.339Z,18.36
2017-05-17T01:15:52.624Z,18.26
2017-05-17T01:17:01.585Z,18.23
2017-05-17T01:18:10.544Z,18.27
2017-05-17T01:19:19.803Z,18.3
2017-05-17T01:20:28.770Z,18.29
2017-05-17T01:21:37.726Z,18.23
2017-05-17T01:22:46.686Z,18.27
2017-05-17T01:23:55.651Z,18.3
2017-05-17T01:25:04.913Z,18.29
2017-05-17T01:26:13.970Z,18.29
2017-05-17T01:27:22.930Z,18.29
2017-05-17T01:28:31.983Z,18.23
2017-05-17T01:29:40.947Z,18.29
2017-05-17T01:30:50.296Z,18.3
2017-05-17T01:31:59.254Z,18.25
2017-05-17T01:33:08.216Z,18.26
2017-05-17T01:34:17.266Z,18.2
2017-05-17T01:35:26.556Z,18.23
2017-05-17T01:36:35.820Z,18.25
2017-05-17T01:37:44.788Z,18.29
2017-05-17T01:38:53.752Z,18.27
2017-05-17T01:40:02.718Z,18.25
2017-05-17T01:41:11.676Z,18.29
2017-05-17T01:42:20.941Z,18.21
2017-05-17T01:43:29.903Z,18.17
2017-05-17T01:44:39.194Z,18.2
2017-05-17T01:45:48.158Z,18.32
2017-05-17T01:46:57.120Z,18.21
2017-05-17T01:48:06.474Z,18.21
2017-05-17T01:49:15.440Z,18.2
2017-05-17T01:50:24.396Z,18.21
2017-05-17T01:51:33.449Z,18.27
2017-05-17T01:52:42.425Z,18.2
2017-05-17T01:53:51.693Z,18.18
2017-05-17T01:55:00.659Z,18.15
2017-05-17T01:56:09.617Z,18.17
2017-05-17T01:57:18.582Z,18.32
2017-05-17T01:58:27.550Z,18.14
2017-05-17T01:59:36.766Z,18.2
2017-05-17T02:00:45.730Z,18.26
2017-05-17T02:01:54.692Z,18.26
2017-05-17T02:03:03.675Z,18.32
2017-05-17T02:04:12.642Z,18.29
2017-05-17T02:05:21.908Z,18.2
2017-05-17T02:06:30.867Z,18.26
2017-05-17T02:07:39.828Z,18.17
2017-05-17T02:08:48.796Z,18.18
2017-05-17T02:09:57.758Z,18.2
2017-05-17T02:11:07.028Z,18.21
2017-05-17T02:12:15.998Z,18.14
2017-05-17T02:13:25.047Z,18.21
2017-05-17T02:14:34.010Z,18.21
2017-05-17T02:15:43.060Z,18.2
2017-05-17T02:16:52.328Z,18.17
2017-05-17T02:18:01.293Z,18.18
2017-05-17T02:19:10.257Z,18.23
2017-05-17T02:20:19.219Z,18.14
2017-05-17T02:21:28.183Z,18.14
2017-05-17T02:22:37.855Z,18.27
2017-05-17T02:23:46.860Z,18.17
2017-05-17T02:24:55.913Z,18.14
2017-05-17T02:26:04.881Z,18.14
2017-05-17T02:27:13.843Z,18.12
2017-05-17T02:28:23.196Z,18.21
2017-05-17T02:29:32.159Z,18.15
2017-05-17T02:30:41.210Z,18.12
2017-05-17T02:31:50.170Z,18.1
2017-05-17T02:32:59.477Z,18.12
2017-05-17T02:34:08.738Z,18.1
2017-05-17T02:35:17.700Z,18.15
2017-05-17T02:36:26.792Z,18.14
2017-05-17T02:37:35.764Z,18.14
2017-05-17T02:38:44.818Z,18.14
2017-05-17T02:39:54.093Z,18.07
2017-05-17T02:41:03.709Z,18.1
2017-05-17T02:42:12.677Z,18.07
2017-05-17T02:43:21.640Z,18.05
2017-05-17T02:44:30.602Z,18.07
2017-05-17T02:45:39.867Z,18.05
2017-05-17T02:46:48.834Z,18.07
2017-05-17T02:47:57.884Z,18.07
2017-05-17T02:49:06.845Z,17.96
2017-05-17T02:50:15.980Z,18.07
2017-05-17T02:51:25.291Z,18.07
2017-05-17T02:52:34.347Z,18.07
2017-05-17T02:53:43.319Z,18.03
2017-05-17T02:54:52.286Z,18
2017-05-17T02:56:01.250Z,17.96
2017-05-17T02:57:10.517Z,18.02
2017-05-17T02:58:19.475Z,18
2017-05-17T02:59:28.437Z,17.97
2017-05-17T03:00:37.398Z,18.03
2017-05-17T03:01:46.365Z,18.03
2017-05-17T03:02:55.578Z,18.03
2017-05-17T03:04:04.538Z,18
2017-05-17T03:05:13.553Z,17.96
2017-05-17T03:06:22.835Z,17.97
2017-05-17T03:07:31.797Z,17.95
2017-05-17T03:08:41.056Z,17.95
2017-05-17T03:09:50.132Z,17.96
2017-05-17T03:10:59.103Z,17.87
2017-05-17T03:12:08.071Z,17.97
2017-05-17T03:13:17.035Z,17.84
2017-05-17T03:14:26.302Z,17.99
2017-05-17T03:15:35.352Z,17.92
2017-05-17T03:16:44.318Z,17.93
2017-05-17T03:17:53.284Z,17.84
2017-05-17T03:19:02.251Z,17.86
2017-05-17T03:20:11.209Z,17.89
2017-05-17T03:21:20.174Z,17.86
2017-05-17T03:22:29.140Z,17.84
2017-05-17T03:23:38.110Z,17.86
2017-05-17T03:24:47.074Z,17.87
2017-05-17T03:25:56.034Z,17.89
2017-05-17T03:27:04.995Z,17.89
2017-05-17T03:28:13.952Z,17.9
2017-05-17T03:29:23.061Z,17.89
2017-05-17T03:30:32.039Z,17.89
2017-05-17T03:31:41.049Z,17.81
2017-05-17T03:32:50.103Z,17.74
2017-05-17T03:33:59.071Z,17.7
2017-05-17T03:35:08.042Z,17.75
2017-05-17T03:36:17.002Z,17.71
2017-05-17T03:37:26.016Z,17.84
2017-05-17T03:38:34.987Z,17.7
2017-05-17T03:39:43.952Z,17.7
2017-05-17T03:40:52.918Z,17.63
2017-05-17T03:42:01.877Z,17.66
2017-05-17T03:43:10.839Z,17.75
2017-05-17T03:44:20.207Z,17.77
2017-05-17T03:45:29.167Z,17.79
2017-05-17T03:46:38.128Z,17.71
2017-05-17T03:47:47.140Z,17.71
2017-05-17T03:48:56.098Z,17.75
2017-05-17T03:50:05.144Z,17.79
2017-05-17T03:51:14.112Z,17.74
2017-05-17T03:52:23.074Z,17.78
2017-05-17T03:53:32.037Z,17.75
2017-05-17T03:54:41.055Z,17.77
2017-05-17T03:55:50.103Z,17.75
2017-05-17T03:56:59.063Z,17.75
2017-05-17T03:58:08.028Z,17.82
2017-05-17T03:59:16.991Z,17.86
2017-05-17T04:00:26.356Z,17.82
2017-05-17T04:01:35.316Z,17.86
2017-05-17T04:02:44.368Z,17.86
2017-05-17T04:03:53.379Z,17.84
2017-05-17T04:05:02.348Z,17.82
2017-05-17T04:06:11.313Z,17.82
2017-05-17T04:07:20.606Z,17.86
2017-05-17T04:08:29.661Z,17.86
2017-05-17T04:09:38.626Z,17.87
2017-05-17T04:10:47.639Z,17.87
2017-05-17T04:11:56.597Z,17.86
2017-05-17T04:13:05.561Z,17.86
2017-05-17T04:14:14.528Z,17.84
2017-05-17T04:15:23.495Z,17.82
2017-05-17T04:16:32.513Z,17.96
2017-05-17T04:17:41.530Z,17.97
2017-05-17T04:18:50.490Z,17.99
2017-05-17T04:19:59.541Z,17.96
2017-05-17T04:21:08.505Z,17.96
2017-05-17T04:22:17.471Z,18.05
2017-05-17T04:23:26.686Z,18.03
2017-05-17T04:24:35.647Z,17.97
2017-05-17T04:25:44.605Z,18
2017-05-17T04:26:53.655Z,18.1
2017-05-17T04:28:02.616Z,18.11
2017-05-17T04:29:11.886Z,18.15
2017-05-17T04:30:21.175Z,18.15
2017-05-17T04:31:30.225Z,18.15
2017-05-17T04:32:39.274Z,18.21
2017-05-17T04:33:48.245Z,18.15
2017-05-17T04:34:57.604Z,18.23
2017-05-17T04:36:06.570Z,18.25
2017-05-17T04:37:15.622Z,18.2
2017-05-17T04:38:24.580Z,18.21
2017-05-17T04:39:33.544Z,18.27
2017-05-17T04:40:42.840Z,18.21
2017-05-17T04:41:51.798Z,18.27
2017-05-17T04:43:00.764Z,18.3
2017-05-17T04:44:09.729Z,18.25
2017-05-17T04:45:18.694Z,18.29
2017-05-17T04:46:27.967Z,18.27
2017-05-17T04:47:36.983Z,18.39
2017-05-17T04:48:45.950Z,18.37
2017-05-17T04:49:55.001Z,18.36
2017-05-17T04:51:03.960Z,18.41
2017-05-17T04:52:13.175Z,18.35
2017-05-17T04:53:22.139Z,18.33
2017-05-17T04:54:31.111Z,18.35
2017-05-17T04:55:40.127Z,18.41
2017-05-17T04:56:49.090Z,18.32
2017-05-17T04:57:58.356Z,18.35
2017-05-17T04:59:07.318Z,18.35
2017-05-17T05:00:16.612Z,18.41
2017-05-17T05:01:25.575Z,18.42
2017-05-17T05:02:34.558Z,18.44
2017-05-17T05:03:43.770Z,18.37
2017-05-17T05:04:52.731Z,18.5
2017-05-17T05:06:01.691Z,18.44
2017-05-17T05:07:10.653Z,18.48
2017-05-17T05:08:19.672Z,18.48
2017-05-17T05:09:28.940Z,18.48
2017-05-17T05:10:37.900Z,18.5
2017-05-17T05:11:46.861Z,18.47
2017-05-17T05:12:55.823Z,18.48
2017-05-17T05:14:04.786Z,18.48
2017-05-17T05:15:14.051Z,18.42
2017-05-17T05:16:23.019Z,18.51
2017-05-17T05:17:31.982Z,18.39
2017-05-17T05:18:40.994Z,18.44
2017-05-17T05:19:49.955Z,18.42
2017-05-17T05:20:59.820Z,18.48
2017-05-17T05:22:08.810Z,18.42
2017-05-17T05:23:17.777Z,18.42
2017-05-17T05:24:26.749Z,18.42
2017-05-17T05:25:35.718Z,18.47
2017-05-17T05:26:44.980Z,18.41
2017-05-17T05:27:54.032Z,18.42
2017-05-17T05:29:03.001Z,18.3
2017-05-17T05:30:11.958Z,18.37
2017-05-17T05:31:20.920Z,18.45
2017-05-17T05:32:30.284Z,18.39
2017-05-17T05:33:39.255Z,18.36
2017-05-17T05:34:48.315Z,18.47
2017-05-17T05:35:57.335Z,18.51
2017-05-17T05:37:06.299Z,18.47
2017-05-17T05:38:15.621Z,18.5
2017-05-17T05:39:24.581Z,18.47
2017-05-17T05:40:33.543Z,18.54
2017-05-17T05:41:42.507Z,18.62
2017-05-17T05:42:51.553Z,18.58
2017-05-17T05:44:00.819Z,18.63
2017-05-17T05:45:09.794Z,18.6
2017-05-17T05:46:18.757Z,18.6
2017-05-17T05:47:27.809Z,18.6
2017-05-17T05:48:36.769Z,18.6
2017-05-17T05:49:46.117Z,18.66
2017-05-17T05:50:55.080Z,18.69
2017-05-17T05:52:04.041Z,18.7
2017-05-17T05:53:13.092Z,18.73
2017-05-17T05:54:22.058Z,18.84
2017-05-17T05:55:31.273Z,18.87
2017-05-17T05:56:40.236Z,18.82
2017-05-17T05:57:49.201Z,18.87
2017-05-17T05:58:58.175Z,18.88
2017-05-17T06:00:07.136Z,18.9
2017-05-17T06:01:16.434Z,18.94
2017-05-17T06:02:25.401Z,19.06
2017-05-17T06:03:34.370Z,19.06
2017-05-17T06:04:43.335Z,19.1
2017-05-17T06:05:52.389Z,19.02
2017-05-17T06:07:01.611Z,19.08
2017-05-17T06:08:10.569Z,19.08
2017-05-17T06:09:19.624Z,19.18
2017-05-17T06:10:28.639Z,19.22
2017-05-17T06:11:37.598Z,19.19
2017-05-17T06:12:46.810Z,19.22
2017-05-17T06:13:55.857Z,19.26
2017-05-17T06:15:04.822Z,19.23
2017-05-17T06:16:13.778Z,19.31
2017-05-17T06:17:22.743Z,19.33
2017-05-17T06:18:31.958Z,19.39
2017-05-17T06:19:41.093Z,19.41
2017-05-17T06:20:50.062Z,19.44
2017-05-17T06:21:59.025Z,19.5
2017-05-17T06:23:08.012Z,19.5
2017-05-17T06:24:17.776Z,19.59
2017-05-17T06:25:26.952Z,19.65
2017-05-17T06:26:36.038Z,19.68
2017-05-17T06:27:45.144Z,19.63
2017-05-17T06:28:54.215Z,19.77
2017-05-17T06:30:03.482Z,19.77
2017-05-17T06:31:12.676Z,19.76
2017-05-17T06:32:21.879Z,19.77
2017-05-17T06:33:30.903Z,19.88
2017-05-17T06:34:39.942Z,19.86
2017-05-17T06:35:49.239Z,19.91
2017-05-17T06:36:58.205Z,19.83
2017-05-17T06:38:07.813Z,19.87
2017-05-17T06:39:16.790Z,20.01
2017-05-17T06:40:25.755Z,19.99
2017-05-17T06:41:35.174Z,20.06
2017-05-17T06:42:44.150Z,20.02
2017-05-17T06:43:53.136Z,20.02
2017-05-17T06:45:02.705Z,20.1
2017-05-17T06:46:12.361Z,19.96
2017-05-17T06:47:24.669Z,20.06
2017-05-17T06:48:36.140Z,20.13
2017-05-17T06:49:46.811Z,20.14
2017-05-17T06:50:56.113Z,20.16
2017-05-17T06:52:05.821Z,20.16
2017-05-17T06:53:15.771Z,20.24
2017-05-17T06:54:25.750Z,20.21
2017-05-17T06:55:35.122Z,20.31
2017-05-17T06:56:44.756Z,20.33
2017-05-17T06:57:54.252Z,20.33
2017-05-17T06:59:03.965Z,20.35
2017-05-17T07:00:13.563Z,20.33
2017-05-17T07:01:23.529Z,20.39
2017-05-17T07:02:33.004Z,20.42
2017-05-17T07:03:42.431Z,20.43
2017-05-17T07:04:52.396Z,20.51
2017-05-17T07:06:02.037Z,20.48
2017-05-17T07:07:11.588Z,20.51
2017-05-17T07:08:21.503Z,20.47
2017-05-17T07:09:30.950Z,20.5
2017-05-17T07:10:40.983Z,20.51
2017-05-17T07:11:50.415Z,20.59
2017-05-17T07:12:59.894Z,20.57
2017-05-17T07:14:09.209Z,20.64
2017-05-17T07:15:18.785Z,20.62
2017-05-17T07:16:30.187Z,20.59
2017-05-17T07:17:41.777Z,20.69
2017-05-17T07:18:50.998Z,20.74
2017-05-17T07:20:00.467Z,20.79
2017-05-17T07:21:10.303Z,20.85
2017-05-17T07:22:20.091Z,20.79
2017-05-17T07:23:29.612Z,20.8
2017-05-17T07:24:39.281Z,20.8
2017-05-17T07:25:48.714Z,20.88
2017-05-17T07:26:58.125Z,20.92
2017-05-17T07:28:08.145Z,20.88
2017-05-17T07:29:17.449Z,20.8
2017-05-17T07:30:26.784Z,20.85
2017-05-17T07:31:36.422Z,20.89
2017-05-17T07:32:46.061Z,20.89
2017-05-17T07:33:55.985Z,20.91
2017-05-17T07:35:05.400Z,21.03
2017-05-17T07:36:14.742Z,21.03
2017-05-17T07:37:24.210Z,20.97
2017-05-17T07:38:33.744Z,21.1
2017-05-17T07:39:43.653Z,21.06
2017-05-17T07:40:53.237Z,21.1
2017-05-17T07:42:02.377Z,21.14
2017-05-17T07:43:11.367Z,21.12
2017-05-17T07:44:20.421Z,21.17
2017-05-17T07:45:29.730Z,21.17
2017-05-17T07:46:38.697Z,21.16
2017-05-17T07:47:47.673Z,21.25
2017-05-17T07:48:56.643Z,21.37
2017-05-17T07:50:05.612Z,21.37
2017-05-17T07:51:14.875Z,21.42
2017-05-17T07:52:23.924Z,21.35
2017-05-17T07:53:32.888Z,21.43
2017-05-17T07:54:41.849Z,21.44
2017-05-17T07:55:50.819Z,21.46
2017-05-17T07:57:00.099Z,21.52
2017-05-17T07:58:09.072Z,21.54
2017-05-17T07:59:18.036Z,21.62
2017-05-17T08:00:27.002Z,21.62
2017-05-17T08:01:35.968Z,21.54
2017-05-17T08:02:45.239Z,21.64
2017-05-17T08:03:54.206Z,21.69
2017-05-17T08:05:03.269Z,21.71
2017-05-17T08:06:12.317Z,21.72
2017-05-17T08:07:21.350Z,21.67
2017-05-17T08:08:30.615Z,21.75
2017-05-17T08:09:39.584Z,21.72
2017-05-17T08:10:48.626Z,21.82
2017-05-17T08:11:57.585Z,21.88
2017-05-17T08:13:06.554Z,21.84
2017-05-17T08:14:15.767Z,21.86
2017-05-17T08:15:24.743Z,21.99
2017-05-17T08:16:33.710Z,22.03
2017-05-17T08:17:42.764Z,22.05
2017-05-17T08:18:51.729Z,22.14
2017-05-17T08:20:00.993Z,22.09
2017-05-17T08:21:09.957Z,22.15
2017-05-17T08:22:18.925Z,22.1
2017-05-17T08:23:27.890Z,22.15
2017-05-17T08:24:36.858Z,22.18
2017-05-17T08:25:46.124Z,22.31
2017-05-17T08:26:55.088Z,22.36
2017-05-17T08:28:04.060Z,22.33
2017-05-17T08:29:13.030Z,22.42
2017-05-17T08:30:21.991Z,22.47
2017-05-17T08:31:31.208Z,22.46
2017-05-17T08:32:40.175Z,22.58
2017-05-17T08:33:49.143Z,22.6
2017-05-17T08:34:58.262Z,22.6
2017-05-17T08:36:07.224Z,22.65
2017-05-17T08:37:16.493Z,22.77
2017-05-17T08:38:25.467Z,22.72
2017-05-17T08:39:34.518Z,22.65
2017-05-17T08:40:43.491Z,22.75
2017-05-17T08:41:52.452Z,22.88
2017-05-17T08:43:01.717Z,22.9
2017-05-17T08:44:10.683Z,22.85
2017-05-17T08:45:19.741Z,22.97
2017-05-17T08:46:28.709Z,22.95
2017-05-17T08:47:37.671Z,22.97
2017-05-17T08:48:46.941Z,23.05
2017-05-17T08:49:55.911Z,23.12
2017-05-17T08:51:04.879Z,23.12
2017-05-17T08:52:13.847Z,23.16
2017-05-17T08:53:22.903Z,23.17
2017-05-17T08:54:32.128Z,23.22
2017-05-17T08:55:41.098Z,23.15
2017-05-17T08:56:50.068Z,23.19
2017-05-17T08:57:59.035Z,23.19
2017-05-17T08:59:08.001Z,23.28
2017-05-17T09:00:17.304Z,23.23
2017-05-17T09:01:26.369Z,23.22
2017-05-17T09:02:35.332Z,23.35
2017-05-17T09:03:44.303Z,23.27
2017-05-17T09:04:53.269Z,23.31
2017-05-17T09:06:02.549Z,23.28
2017-05-17T09:07:11.838Z,23.31
2017-05-17T09:08:20.803Z,23.25
2017-05-17T09:09:29.780Z,23.2
2017-05-17T09:10:38.752Z,23.17
2017-05-17T09:11:48.024Z,23.22
2017-05-17T09:12:57.084Z,23.27
2017-05-17T09:14:06.055Z,23.28
2017-05-17T09:15:15.342Z,23.27
2017-05-17T09:16:24.337Z,23.31
2017-05-17T09:17:33.562Z,23.25
2017-05-17T09:18:42.616Z,23.38
2017-05-17T09:19:51.584Z,23.31
2017-05-17T09:21:01.206Z,23.32
2017-05-17T09:22:10.180Z,23.39
2017-05-17T09:23:19.445Z,23.4
2017-05-17T09:24:28.416Z,23.4
2017-05-17T09:25:37.381Z,23.39
2017-05-17T09:26:46.346Z,23.42
2017-05-17T09:27:55.651Z,23.47
2017-05-17T09:29:04.867Z,23.47
2017-05-17T09:30:13.834Z,23.43
2017-05-17T09:31:22.851Z,23.51
2017-05-17T09:32:31.817Z,23.48
2017-05-17T09:33:40.838Z,23.43
2017-05-17T09:34:50.106Z,23.57
2017-05-17T09:35:59.078Z,23.57
2017-05-17T09:37:08.040Z,23.63
2017-05-17T09:38:17.015Z,23.68
2017-05-17T09:39:26.313Z,23.58
2017-05-17T09:40:35.530Z,23.61
2017-05-17T09:41:44.491Z,23.68
2017-05-17T09:42:53.457Z,23.7
2017-05-17T09:44:02.420Z,23.79
2017-05-17T09:45:11.383Z,23.87
2017-05-17T09:46:20.968Z,23.66
2017-05-17T09:47:29.934Z,23.63
2017-05-17T09:48:38.906Z,23.68
2017-05-17T09:49:47.869Z,23.63
2017-05-17T09:50:56.834Z,23.73
2017-05-17T09:52:06.153Z,23.68
2017-05-17T09:53:15.128Z,23.73
2017-05-17T09:54:24.092Z,23.76
2017-05-17T09:55:33.062Z,23.79
2017-05-17T09:56:42.028Z,23.84
2017-05-17T09:57:51.298Z,23.84
2017-05-17T09:59:00.273Z,23.85
2017-05-17T10:00:09.243Z,23.85
2017-05-17T10:01:18.301Z,23.88
2017-05-17T10:02:27.279Z,23.93
2017-05-17T10:03:36.495Z,23.94
2017-05-17T10:04:45.463Z,23.95
2017-05-17T10:05:54.432Z,23.97
2017-05-17T10:07:03.400Z,23.94
2017-05-17T10:08:12.454Z,23.98
2017-05-17T10:09:21.721Z,24
2017-05-17T10:10:30.698Z,24.1
2017-05-17T10:11:39.667Z,24.13
2017-05-17T10:12:48.636Z,24.03
2017-05-17T10:13:57.611Z,24.09
2017-05-17T10:15:06.878Z,24.12
2017-05-17T10:16:15.846Z,24.1
2017-05-17T10:17:24.810Z,24.09
2017-05-17T10:18:33.781Z,24.16
2017-05-17T10:19:43.079Z,24.18
2017-05-17T10:20:52.299Z,24.16
2017-05-17T10:22:01.266Z,24.12
2017-05-17T10:23:10.235Z,24.22
2017-05-17T10:24:19.296Z,24.27
2017-05-17T10:25:28.344Z,24.24
2017-05-17T10:26:37.702Z,24.3
2017-05-17T10:27:46.760Z,24.21
2017-05-17T10:28:55.820Z,24.27
2017-05-17T10:30:04.790Z,24.25
2017-05-17T10:31:13.758Z,24.12
2017-05-17T10:32:23.348Z,24.16
2017-05-17T10:33:32.406Z,24.16
2017-05-17T10:34:41.375Z,24.21
2017-05-17T10:35:50.341Z,24.2
2017-05-17T10:36:59.309Z,24.12
2017-05-17T10:38:08.528Z,24.27
2017-05-17T10:39:17.493Z,24.15
2017-05-17T10:40:26.459Z,24.32
2017-05-17T10:41:35.573Z,24.16
2017-05-17T10:42:44.562Z,24.22
2017-05-17T10:43:53.827Z,24.22
2017-05-17T10:45:02.795Z,24.34
2017-05-17T10:46:11.760Z,24.3
2017-05-17T10:47:20.730Z,24.32
2017-05-17T10:48:29.696Z,24.32
2017-05-17T10:49:38.914Z,24.25
2017-05-17T10:50:47.882Z,24.31
2017-05-17T10:51:56.857Z,24.34
2017-05-17T10:53:06.152Z,24.34
2017-05-17T10:54:15.118Z,24.42
2017-05-17T10:55:24.334Z,24.42
2017-05-17T10:56:33.297Z,24.42
2017-05-17T10:57:42.266Z,24.46
2017-05-17T10:58:51.286Z,24.45
2017-05-17T11:00:00.253Z,24.58
2017-05-17T11:01:09.559Z,24.52
2017-05-17T11:02:18.534Z,24.57
2017-05-17T11:03:27.503Z,24.52
2017-05-17T11:04:36.793Z,24.53
2017-05-17T11:05:45.756Z,24.6
2017-05-17T11:06:54.972Z,24.58
2017-05-17T11:08:03.941Z,24.55
2017-05-17T11:09:12.905Z,24.58
2017-05-17T11:10:21.962Z,24.62
2017-05-17T11:11:30.934Z,24.58
2017-05-17T11:12:40.155Z,24.67
2017-05-17T11:13:49.123Z,24.6
2017-05-17T11:14:58.090Z,24.67
2017-05-17T11:16:07.058Z,24.73
2017-05-17T11:17:16.028Z,24.77
2017-05-17T11:18:25.297Z,24.8
2017-05-17T11:19:34.272Z,24.84
2017-05-17T11:20:43.328Z,24.9
2017-05-17T11:21:52.296Z,24.9
2017-05-17T11:23:01.262Z,24.91
2017-05-17T11:24:10.483Z,24.95
2017-05-17T11:25:19.453Z,24.88
2017-05-17T11:26:28.421Z,24.9
2017-05-17T11:27:37.386Z,24.9
2017-05-17T11:28:46.354Z,24.95
2017-05-17T11:29:55.628Z,24.98
2017-05-17T11:31:04.918Z,25.03
2017-05-17T11:32:13.891Z,25.03
2017-05-17T11:33:22.944Z,24.96
2017-05-17T11:34:31.916Z,24.98
2017-05-17T11:35:41.136Z,25.02
2017-05-17T11:36:50.101Z,25
2017-05-17T11:37:59.160Z,25.15
2017-05-17T11:39:08.221Z,25.05
2017-05-17T11:40:17.190Z,25.1
2017-05-17T11:41:26.496Z,25.09
2017-05-17T11:42:35.471Z,25.14
2017-05-17T11:43:44.442Z,25.14
2017-05-17T11:44:53.499Z,25.21
2017-05-17T11:46:02.468Z,25.17
2017-05-17T11:47:11.820Z,25.14
2017-05-17T11:48:20.788Z,25.14
2017-05-17T11:49:29.763Z,25.13
2017-05-17T11:50:38.731Z,25.05
2017-05-17T11:51:47.709Z,25.17
2017-05-17T11:52:56.975Z,25.21
2017-05-17T11:54:05.942Z,25.21
2017-05-17T11:55:14.909Z,25.23
2017-05-17T11:56:23.882Z,25.24
2017-05-17T11:57:32.852Z,25.2
2017-05-17T11:58:42.130Z,25.21
2017-05-17T11:59:51.096Z,25.23
2017-05-17T12:01:00.064Z,25.23
2017-05-17T12:02:09.124Z,25.17
2017-05-17T12:03:18.175Z,25.25
2017-05-17T12:04:27.449Z,25.21
2017-05-17T12:05:36.413Z,25.2
2017-05-17T12:06:45.392Z,25.27
2017-05-17T12:07:54.358Z,25.2
2017-05-17T12:09:03.331Z,25.33
2017-05-17T12:10:12.598Z,25.24
2017-05-17T12:11:21.653Z,25.23
2017-05-17T12:12:30.615Z,25.23
2017-05-17T12:13:39.587Z,25.27
2017-05-17T12:14:48.881Z,25.24
2017-05-17T12:15:58.121Z,25.24
2017-05-17T12:17:07.174Z,25.23
2017-05-17T12:18:16.143Z,25.21
2017-05-17T12:19:25.113Z,25.21
2017-05-17T12:20:34.079Z,25.2
2017-05-17T12:21:43.296Z,25.2
2017-05-17T12:22:52.274Z,25.23
2017-05-17T12:24:01.566Z,25.14
2017-05-17T12:25:10.536Z,25.08
2017-05-17T12:26:19.503Z,25.15
2017-05-17T12:27:28.826Z,25.1
2017-05-17T12:28:37.790Z,25.15
2017-05-17T12:29:46.760Z,25.15
2017-05-17T12:30:55.814Z,25.1
2017-05-17T12:32:04.783Z,25.2
2017-05-17T12:33:14.059Z,25.23
2017-05-17T12:34:23.354Z,25.23
2017-05-17T12:35:32.334Z,25.24
2017-05-17T12:36:41.304Z,25.3
2017-05-17T12:37:50.270Z,25.39
2017-05-17T12:38:59.542Z,25.33
2017-05-17T12:40:08.512Z,25.39
2017-05-17T12:41:17.488Z,25.32
2017-05-17T12:42:26.457Z,25.4
2017-05-17T12:43:35.431Z,25.39
2017-05-17T12:44:44.788Z,25.36
2017-05-17T12:45:53.757Z,25.38
2017-05-17T12:47:02.723Z,25.43
2017-05-17T12:48:11.691Z,25.39
2017-05-17T12:49:20.660Z,25.36
2017-05-17T12:50:29.934Z,25.4
2017-05-17T12:51:38.903Z,25.42
2017-05-17T12:52:47.873Z,25.42
2017-05-17T12:53:56.850Z,25.42
2017-05-17T12:55:05.874Z,25.39
2017-05-17T12:56:15.137Z,25.43
2017-05-17T12:57:24.102Z,25.43
2017-05-17T12:58:33.080Z,25.5
2017-05-17T12:59:42.049Z,25.54
2017-05-17T13:00:51.012Z,25.55
2017-05-17T13:02:00.278Z,25.62
2017-05-17T13:03:09.243Z,25.62
2017-05-17T13:04:18.217Z,25.7
2017-05-17T13:05:27.195Z,25.67
2017-05-17T13:06:36.162Z,25.62
2017-05-17T13:07:45.379Z,25.58
2017-05-17T13:08:54.360Z,25.67
2017-05-17T13:10:03.644Z,25.64
2017-05-17T13:11:12.609Z,25.55
2017-05-17T13:12:21.666Z,25.58
2017-05-17T13:13:30.937Z,25.62
2017-05-17T13:14:39.906Z,25.58
2017-05-17T13:15:48.875Z,25.62
2017-05-17T13:16:57.838Z,25.54
2017-05-17T13:18:06.810Z,25.67
2017-05-17T13:19:16.084Z,25.62
2017-05-17T13:20:25.059Z,25.62
2017-05-17T13:21:34.115Z,25.55
2017-05-17T13:22:43.171Z,25.52
2017-05-17T13:23:52.157Z,25.55
2017-05-17T13:25:01.375Z,25.54
2017-05-17T13:26:10.342Z,25.54
2017-05-17T13:27:19.397Z,25.54
2017-05-17T13:28:28.453Z,25.6
2017-05-17T13:29:37.421Z,25.57
2017-05-17T13:30:46.642Z,25.55
2017-05-17T13:31:55.625Z,25.55
2017-05-17T13:33:04.592Z,25.52
2017-05-17T13:34:13.568Z,25.69
2017-05-17T13:35:22.549Z,25.64
2017-05-17T13:36:31.819Z,25.67
2017-05-17T13:37:40.790Z,25.55
2017-05-17T13:38:49.757Z,25.58
2017-05-17T13:39:59.059Z,25.61
2017-05-17T13:41:08.024Z,25.64
2017-05-17T13:42:17.289Z,25.65
2017-05-17T13:43:26.258Z,25.69
2017-05-17T13:44:35.229Z,25.65
2017-05-17T13:45:44.192Z,25.73
2017-05-17T13:46:53.170Z,25.72
2017-05-17T13:48:02.386Z,25.7
2017-05-17T13:49:11.351Z,25.72
2017-05-17T13:50:20.312Z,25.73
2017-05-17T13:51:29.288Z,25.72
2017-05-17T13:52:38.259Z,25.65
2017-05-17T13:53:47.521Z,25.7
2017-05-17T13:54:56.488Z,25.72
2017-05-17T13:56:05.552Z,25.72
2017-05-17T13:57:14.563Z,25.7
2017-05-17T13:58:23.536Z,25.72
2017-05-17T13:59:32.895Z,25.7
2017-05-17T14:00:41.865Z,25.7
2017-05-17T14:01:50.836Z,25.7
2017-05-17T14:02:59.796Z,25.69
2017-05-17T14:04:08.761Z,25.76
2017-05-17T14:05:18.030Z,25.69
2017-05-17T14:06:27.052Z,25.82
2017-05-17T14:07:36.035Z,25.83
2017-05-17T14:08:45.007Z,25.75
2017-05-17T14:09:53.976Z,25.82
2017-05-17T14:11:03.331Z,25.7
2017-05-17T14:12:12.318Z,25.73
2017-05-17T14:13:21.292Z,25.72
2017-05-17T14:14:30.350Z,25.69
2017-05-17T14:15:39.316Z,25.77
2017-05-17T14:16:48.535Z,25.79
2017-05-17T14:17:57.502Z,25.75
2017-05-17T14:19:06.465Z,25.76
2017-05-17T14:20:15.440Z,25.83
2017-05-17T14:21:24.412Z,25.65
2017-05-17T14:22:34.001Z,25.8
2017-05-17T14:23:42.965Z,25.83
2017-05-17T14:24:51.933Z,25.85
2017-05-17T14:26:00.902Z,25.79
2017-05-17T14:27:09.955Z,25.8
2017-05-17T14:28:19.224Z,25.83
2017-05-17T14:29:28.207Z,25.76
2017-05-17T14:30:37.176Z,25.8
2017-05-17T14:31:46.239Z,25.77
2017-05-17T14:32:55.207Z,25.82
2017-05-17T14:34:04.476Z,25.79
2017-05-17T14:35:13.446Z,25.88
2017-05-17T14:36:22.408Z,25.88
2017-05-17T14:37:31.373Z,25.83
2017-05-17T14:38:40.341Z,25.79
2017-05-17T14:39:49.623Z,25.87
2017-05-17T14:40:58.585Z,25.75
2017-05-17T14:42:07.551Z,25.79
2017-05-17T14:43:16.521Z,25.82
2017-05-17T14:44:25.495Z,25.82
2017-05-17T14:45:34.767Z,25.77
2017-05-17T14:46:43.742Z,25.8
2017-05-17T14:47:52.712Z,25.77
2017-05-17T14:49:01.681Z,25.83
2017-05-17T14:50:10.741Z,25.8
2017-05-17T14:51:20.008Z,25.88
2017-05-17T14:52:28.983Z,25.85
2017-05-17T14:53:38.052Z,25.82
2017-05-17T14:54:47.018Z,25.79